createdAt,value
2023-03-18T00:01:16.316Z,8.00
2023-03-18T00:03:46.024Z,8.80
2023-03-18T00:06:18.903Z,9.00
2023-03-18T00:08:49.156Z,8.80
2023-03-18T00:11:20.992Z,9.70
2023-03-18T00:13:50.268Z,9.00
2023-03-18T00:16:20.197Z,8.40
2023-03-18T00:18:49.025Z,9.60
2023-03-18T00:21:17.761Z,9.20
2023-03-18T00:23:48.987Z,8.90
2023-03-18T00:26:17.754Z,11.10
2023-03-18T00:28:47.126Z,9.60
2023-03-18T00:31:15.988Z,9.10
2023-03-18T00:33:48.157Z,8.90
2023-03-18T00:36:18.668Z,9.80
2023-03-18T00:38:51.276Z,7.90
2023-03-18T00:41:20.028Z,10.00
2023-03-18T00:43:53.035Z,9.60
2023-03-18T00:46:33.632Z,9.50
2023-03-18T00:49:08.043Z,9.00
2023-03-18T00:51:37.970Z,8.90
2023-03-18T00:54:09.928Z,8.10
2023-03-18T00:56:39.842Z,8.00
2023-03-18T00:59:09.141Z,8.00
2023-03-18T01:01:38.156Z,7.20
2023-03-18T01:04:07.520Z,7.70
2023-03-18T01:06:38.646Z,6.70
2023-03-18T01:09:10.126Z,7.20
2023-03-18T01:11:39.497Z,7.00
2023-03-18T01:14:08.968Z,6.60
2023-03-18T01:16:37.756Z,7.50
2023-03-18T01:19:06.835Z,6.90
2023-03-18T01:21:35.526Z,7.20
2023-03-18T01:24:04.803Z,7.20
2023-03-18T01:26:35.085Z,6.70
2023-03-18T01:29:04.754Z,7.30
2023-03-18T01:31:34.978Z,7.00
2023-03-18T01:34:07.913Z,6.60
2023-03-18T01:36:51.974Z,6.90
2023-03-18T01:39:23.598Z,6.50
2023-03-18T01:41:52.586Z,7.20
2023-03-18T01:44:27.925Z,7.20
2023-03-18T01:46:57.522Z,7.30
2023-03-18T01:49:35.274Z,6.70
2023-03-18T01:52:13.421Z,7.50
2023-03-18T01:55:10.748Z,8.90
2023-03-18T01:57:39.525Z,6.90
2023-03-18T02:00:11.227Z,6.80
2023-03-18T02:02:45.638Z,5.80
2023-03-18T02:05:23.073Z,7.10
2023-03-18T02:07:52.701Z,6.50
2023-03-18T02:10:24.912Z,7.40
2023-03-18T02:13:02.863Z,7.40
2023-03-18T02:15:44.891Z,7.00
2023-03-18T02:18:21.377Z,7.00
2023-03-18T02:21:04.256Z,7.10
2023-03-18T02:23:48.496Z,7.10
2023-03-18T02:26:36.301Z,6.40
2023-03-18T02:29:08.066Z,7.40
2023-03-18T02:31:46.910Z,6.10
2023-03-18T02:34:16.816Z,6.40
2023-03-18T02:36:46.453Z,6.70
2023-03-18T02:39:16.415Z,7.90
2023-03-18T02:41:46.077Z,7.30
2023-03-18T02:44:15.280Z,7.10
2023-03-18T02:47:11.889Z,7.30
2023-03-18T02:49:41.613Z,7.70
2023-03-18T02:52:10.684Z,7.60
2023-03-18T02:54:39.478Z,8.10
2023-03-18T02:57:08.227Z,6.20
2023-03-18T02:59:37.716Z,7.00
2023-03-18T03:02:06.713Z,6.50
2023-03-18T03:04:35.615Z,6.90
2023-03-18T03:07:04.531Z,5.80
2023-03-18T03:09:42.964Z,6.50
2023-03-18T03:12:12.531Z,6.90
2023-03-18T03:14:45.732Z,7.10
2023-03-18T03:17:15.457Z,7.60
2023-03-18T03:19:46.182Z,7.70
2023-03-18T03:22:17.473Z,7.80
2023-03-18T03:24:48.986Z,7.80
2023-03-18T03:27:17.921Z,8.10
2023-03-18T03:29:46.634Z,8.00
2023-03-18T03:32:16.123Z,7.60
2023-03-18T03:34:44.852Z,7.40
2023-03-18T03:37:14.113Z,7.00
2023-03-18T03:39:43.222Z,7.40
2023-03-18T03:42:11.982Z,6.50
2023-03-18T03:44:41.092Z,6.90
2023-03-18T03:47:10.818Z,6.80
2023-03-18T03:49:39.526Z,5.80
2023-03-18T03:52:08.591Z,6.00
2023-03-18T03:54:38.508Z,6.40
2023-03-18T03:57:07.976Z,6.10
2023-03-18T03:59:36.705Z,5.50
2023-03-18T04:02:18.519Z,6.50
2023-03-18T04:04:47.548Z,6.60
2023-03-18T04:07:24.339Z,7.50
2023-03-18T04:09:53.785Z,7.40
2023-03-18T04:12:22.457Z,6.80
2023-03-18T04:14:57.049Z,7.30
2023-03-18T04:17:25.816Z,6.80
2023-03-18T04:19:54.651Z,7.60
2023-03-18T04:22:24.776Z,6.80
2023-03-18T04:24:53.472Z,7.40
2023-03-18T04:27:22.933Z,7.30
2023-03-18T04:29:52.048Z,7.50
2023-03-18T04:32:21.845Z,6.80
2023-03-18T04:34:51.001Z,7.70
2023-03-18T04:37:20.860Z,7.00
2023-03-18T04:39:51.448Z,6.40
2023-03-18T04:42:20.190Z,5.60
2023-03-18T04:44:49.101Z,7.10
2023-03-18T04:47:18.314Z,6.50
2023-03-18T04:49:47.312Z,7.70
2023-03-18T04:52:16.698Z,6.80
2023-03-18T04:54:45.960Z,6.80
2023-03-18T04:57:14.951Z,7.30
2023-03-18T04:59:49.140Z,6.70
2023-03-18T05:02:17.939Z,6.70
2023-03-18T05:04:46.842Z,6.50
2023-03-18T05:07:17.416Z,5.70
2023-03-18T05:09:54.514Z,6.60
2023-03-18T05:12:25.650Z,6.20
2023-03-18T05:14:54.290Z,7.40
2023-03-18T05:17:23.082Z,7.20
2023-03-18T05:19:57.469Z,7.10
2023-03-18T05:22:26.559Z,7.60
2023-03-18T05:25:02.078Z,6.90
2023-03-18T05:27:31.248Z,7.80
2023-03-18T05:30:08.099Z,8.00
2023-03-18T05:32:43.218Z,7.20
2023-03-18T05:35:12.577Z,7.60
2023-03-18T05:37:47.937Z,7.70
2023-03-18T05:40:17.534Z,7.70
2023-03-18T05:42:56.812Z,6.90
2023-03-18T05:45:34.546Z,7.20
2023-03-18T05:48:06.877Z,6.70
2023-03-18T05:50:43.812Z,7.30
2023-03-18T05:53:16.510Z,7.40
2023-03-18T05:55:46.060Z,7.70
2023-03-18T05:58:15.640Z,7.60
2023-03-18T06:00:45.032Z,8.20
2023-03-18T06:03:13.870Z,7.90
2023-03-18T06:05:42.839Z,8.20
2023-03-18T06:08:11.612Z,8.30
2023-03-18T06:10:40.465Z,7.90
2023-03-18T06:13:12.297Z,8.20
2023-03-18T06:15:40.979Z,7.30
2023-03-18T06:18:09.762Z,8.30
2023-03-18T06:20:38.521Z,8.10
2023-03-18T06:23:07.967Z,9.50
2023-03-18T06:25:36.859Z,9.60
2023-03-18T06:28:05.571Z,8.80
2023-03-18T06:30:34.602Z,10.00
2023-03-18T06:33:04.062Z,9.80
2023-03-18T06:35:33.322Z,9.30
2023-03-18T06:38:03.135Z,9.60
2023-03-18T06:40:33.043Z,9.50
2023-03-18T06:43:01.934Z,9.30
2023-03-18T06:45:42.036Z,10.60
2023-03-18T06:48:12.017Z,9.70
2023-03-18T06:50:43.293Z,8.80
2023-03-18T06:53:16.656Z,10.00
2023-03-18T06:55:46.258Z,9.60
2023-03-18T06:58:15.810Z,9.70
2023-03-18T07:01:00.454Z,10.30
2023-03-18T07:03:33.067Z,10.10
2023-03-18T07:06:02.685Z,8.90
2023-03-18T07:08:32.407Z,10.80
2023-03-18T07:11:01.256Z,10.50
2023-03-18T07:13:30.648Z,9.80
2023-03-18T07:16:00.566Z,7.80
2023-03-18T07:18:29.611Z,10.70
2023-03-18T07:20:58.931Z,12.10
2023-03-18T07:23:28.151Z,11.40
2023-03-18T07:25:58.961Z,12.30
2023-03-18T07:28:28.035Z,12.60
2023-03-18T07:30:56.802Z,12.80
2023-03-18T07:33:26.146Z,12.70
2023-03-18T07:35:55.654Z,12.00
2023-03-18T07:38:24.522Z,12.20
2023-03-18T07:40:53.269Z,13.50
2023-03-18T07:43:22.069Z,14.30
2023-03-18T07:45:50.753Z,14.50
2023-03-18T07:48:19.761Z,15.50
2023-03-18T07:50:48.386Z,13.90
2023-03-18T07:53:17.160Z,13.70
2023-03-18T07:55:46.469Z,14.40
2023-03-18T07:58:15.653Z,14.70
2023-03-18T08:00:45.278Z,14.10
2023-03-18T08:03:14.466Z,14.40
2023-03-18T08:05:43.252Z,15.90
2023-03-18T08:08:13.194Z,15.60
2023-03-18T08:10:42.476Z,14.50
2023-03-18T08:13:11.360Z,13.60
2023-03-18T08:15:41.279Z,12.80
2023-03-18T08:18:09.980Z,14.90
2023-03-18T08:20:38.775Z,14.20
2023-03-18T08:23:08.017Z,15.60
2023-03-18T08:25:37.058Z,17.00
2023-03-18T08:28:07.747Z,18.10
2023-03-18T08:30:39.515Z,18.40
2023-03-18T08:33:09.389Z,16.90
2023-03-18T08:35:42.443Z,17.50
2023-03-18T08:38:11.543Z,15.90
2023-03-18T08:40:42.569Z,16.50
2023-03-18T08:43:11.374Z,17.70
2023-03-18T08:45:40.188Z,18.50
2023-03-18T08:48:09.957Z,18.20
2023-03-18T08:50:38.969Z,19.00
2023-03-18T08:53:07.704Z,18.70
2023-03-18T08:55:37.476Z,17.80
2023-03-18T08:58:08.398Z,18.20
2023-03-18T09:00:40.773Z,18.60
2023-03-18T09:03:10.383Z,18.90
2023-03-18T09:05:39.800Z,18.50
2023-03-18T09:08:08.658Z,20.00
2023-03-18T09:10:37.940Z,19.40
2023-03-18T09:13:09.580Z,16.50
2023-03-18T09:15:39.109Z,19.70
2023-03-18T09:18:12.217Z,19.10
2023-03-18T09:20:41.865Z,19.40
2023-03-18T09:23:12.501Z,18.30
2023-03-18T09:25:44.339Z,18.80
2023-03-18T09:28:14.424Z,20.00
2023-03-18T09:30:43.714Z,19.40
2023-03-18T09:33:12.852Z,19.80
2023-03-18T09:35:41.614Z,20.70
2023-03-18T09:38:17.088Z,22.80
2023-03-18T09:41:10.516Z,20.60
2023-03-18T09:43:55.516Z,19.30
2023-03-18T09:46:46.278Z,18.20
2023-03-18T09:49:37.550Z,19.60
2023-03-18T09:52:27.801Z,19.10
2023-03-18T09:55:20.830Z,18.70
2023-03-18T09:57:53.562Z,18.20
2023-03-18T10:00:44.513Z,24.00
2023-03-18T10:03:37.759Z,18.00
2023-03-18T10:06:09.421Z,36.80
2023-03-18T10:09:06.691Z,17.70
2023-03-18T10:11:42.961Z,18.20
2023-03-18T10:14:37.488Z,20.00
2023-03-18T10:17:26.137Z,19.40
2023-03-18T10:19:59.296Z,17.50
2023-03-18T10:25:39.027Z,20.50
2023-03-18T10:28:33.634Z,20.50
2023-03-18T10:31:41.229Z,18.60
2023-03-18T10:34:46.979Z,18.40
2023-03-18T10:37:35.111Z,20.10
2023-03-18T10:40:16.178Z,20.60
2023-03-18T10:42:46.263Z,18.50
2023-03-18T10:45:23.781Z,18.90
2023-03-18T10:48:25.802Z,20.20
2023-03-18T10:51:13.378Z,20.10
2023-03-18T10:54:21.125Z,21.00
2023-03-18T10:56:50.867Z,19.30
2023-03-18T10:59:24.715Z,17.90
2023-03-18T11:02:10.404Z,19.00
2023-03-18T11:04:51.880Z,19.60
2023-03-18T11:07:26.790Z,19.70
2023-03-18T11:09:55.737Z,20.50
2023-03-18T11:12:29.597Z,20.10
2023-03-18T11:14:58.320Z,20.70
2023-03-18T11:17:35.751Z,20.40
2023-03-18T11:20:44.329Z,19.50
2023-03-18T11:23:48.512Z,20.20
2023-03-18T11:26:29.981Z,19.60
2023-03-18T11:29:10.563Z,18.90
2023-03-18T11:31:58.428Z,19.80
2023-03-18T11:34:35.153Z,19.00
2023-03-18T11:37:08.384Z,19.80
2023-03-18T11:39:41.755Z,19.40
2023-03-18T11:42:40.610Z,19.30
2023-03-18T11:45:19.170Z,18.50
2023-03-18T11:47:48.101Z,18.50
2023-03-18T11:50:21.408Z,19.00
2023-03-18T11:53:11.813Z,20.60
2023-03-18T11:56:01.906Z,21.10
2023-03-18T11:58:49.873Z,20.10
2023-03-18T12:01:42.160Z,19.90
2023-03-18T12:04:57.827Z,20.60
2023-03-18T12:07:49.681Z,20.70
2023-03-18T12:10:31.606Z,21.50
2023-03-18T12:13:39.801Z,21.00
2023-03-18T12:16:46.206Z,18.90
2023-03-18T12:19:35.461Z,20.50
2023-03-18T12:22:26.238Z,19.30
2023-03-18T12:25:38.450Z,19.20
2023-03-18T12:28:29.020Z,19.40
2023-03-18T12:31:45.561Z,19.30
2023-03-18T12:34:29.775Z,21.30
2023-03-18T12:37:24.995Z,20.10
2023-03-18T12:40:20.882Z,20.40
2023-03-18T12:43:09.353Z,21.40
2023-03-18T12:45:43.978Z,20.20
2023-03-18T12:48:43.028Z,19.40
2023-03-18T12:51:25.005Z,20.20
2023-03-18T12:54:13.606Z,19.80
2023-03-18T12:56:51.177Z,20.10
2023-03-18T12:59:31.138Z,19.80
2023-03-18T13:02:40.103Z,19.80
2023-03-18T13:05:24.721Z,20.10
2023-03-18T13:08:52.704Z,21.90
2023-03-18T13:12:16.877Z,21.80
2023-03-18T13:15:08.674Z,22.90
2023-03-18T13:17:42.506Z,21.00
2023-03-18T13:20:27.998Z,20.00
2023-03-18T13:23:18.155Z,23.00
2023-03-18T13:26:02.140Z,20.90
2023-03-18T13:28:48.808Z,21.30
2023-03-18T13:31:52.437Z,18.00
2023-03-18T13:35:06.839Z,22.00
2023-03-18T13:38:36.164Z,21.30
2023-03-18T13:41:32.653Z,18.60
2023-03-18T13:44:16.449Z,19.90
2023-03-18T13:46:59.331Z,19.70
2023-03-18T13:49:32.294Z,22.50
2023-03-18T13:52:04.153Z,21.00
2023-03-18T13:54:41.396Z,19.20
2023-03-18T13:57:25.175Z,19.30
2023-03-18T14:00:40.620Z,20.20
2023-03-18T14:03:27.098Z,19.80
2023-03-18T14:06:04.760Z,20.80
2023-03-18T14:08:39.490Z,21.90
2023-03-18T14:11:49.334Z,20.40
2023-03-18T14:14:53.939Z,20.90
2023-03-18T14:17:46.773Z,19.80
2023-03-18T14:20:17.541Z,22.40
2023-03-18T14:22:52.890Z,21.20
2023-03-18T14:25:41.552Z,20.70
2023-03-18T14:28:10.705Z,21.70
2023-03-18T14:30:47.533Z,20.20
2023-03-18T14:33:20.248Z,20.60
2023-03-18T14:36:10.800Z,20.80
2023-03-18T14:39:03.684Z,19.90
2023-03-18T14:41:37.840Z,20.10
2023-03-18T14:44:17.559Z,21.00
2023-03-18T14:46:51.683Z,22.10
2023-03-18T14:49:26.462Z,20.50
2023-03-18T14:54:42.743Z,21.70
2023-03-18T14:57:12.061Z,20.60
2023-03-18T14:59:41.815Z,19.70
2023-03-18T15:02:29.056Z,21.40
2023-03-18T15:05:00.906Z,21.20
2023-03-18T15:07:36.322Z,19.20
2023-03-18T15:10:17.915Z,18.90
2023-03-18T15:13:15.285Z,19.00
2023-03-18T15:15:44.475Z,18.80
2023-03-18T15:18:30.772Z,16.40
2023-03-18T15:21:26.393Z,18.30
2023-03-18T15:24:01.281Z,18.90
2023-03-18T15:26:31.238Z,17.90
2023-03-18T15:29:18.256Z,19.00
2023-03-18T15:31:47.127Z,19.50
2023-03-18T15:34:23.946Z,18.10
2023-03-18T15:36:59.799Z,17.80
2023-03-18T15:39:32.484Z,19.90
2023-03-18T15:42:03.234Z,18.80
2023-03-18T15:44:37.706Z,18.00
2023-03-18T15:47:14.193Z,19.30
2023-03-18T15:49:57.742Z,18.30
2023-03-18T15:52:44.660Z,17.90
2023-03-18T15:55:47.438Z,17.00
2023-03-18T15:58:38.702Z,17.20
2023-03-18T16:01:10.944Z,18.00
2023-03-18T16:03:40.327Z,17.90
2023-03-18T16:06:12.871Z,17.30
2023-03-18T16:08:41.923Z,17.50
2023-03-18T16:11:14.617Z,17.80
2023-03-18T16:13:44.808Z,18.70
2023-03-18T16:16:30.440Z,18.30
2023-03-18T16:18:59.968Z,17.80
2023-03-18T16:21:28.798Z,19.10
2023-03-18T16:23:57.607Z,18.00
2023-03-18T16:26:28.231Z,19.90
2023-03-18T16:29:04.078Z,19.50
2023-03-18T16:31:34.807Z,22.10
2023-03-18T16:34:03.700Z,20.70
2023-03-18T16:36:35.502Z,20.70
2023-03-18T16:39:34.270Z,20.70
2023-03-18T16:42:05.374Z,21.50
2023-03-18T16:44:36.007Z,19.90
2023-03-18T16:47:05.095Z,20.10
2023-03-18T16:49:36.870Z,19.20
2023-03-18T16:52:06.100Z,19.50
2023-03-18T16:54:34.916Z,19.70
2023-03-18T16:57:05.869Z,21.70
2023-03-18T16:59:37.416Z,24.10
2023-03-18T17:02:30.981Z,23.40
2023-03-18T17:07:29.958Z,22.20
2023-03-18T17:09:58.708Z,21.00
2023-03-18T17:12:27.564Z,22.40
2023-03-18T17:14:58.720Z,26.00
2023-03-18T17:17:36.037Z,30.90
2023-03-18T17:20:21.308Z,31.60
2023-03-18T17:22:50.225Z,27.30
2023-03-18T17:25:19.064Z,26.80
2023-03-18T17:27:56.196Z,25.10
2023-03-18T17:30:41.332Z,22.20
2023-03-18T17:33:25.615Z,22.00
2023-03-18T17:35:55.374Z,24.60
2023-03-18T17:38:25.112Z,22.10
2023-03-18T17:40:54.300Z,24.70
2023-03-18T17:43:31.995Z,24.10
2023-03-18T17:46:03.416Z,21.40
2023-03-18T17:48:35.705Z,22.20
2023-03-18T17:51:13.343Z,22.00
2023-03-18T17:53:46.247Z,23.70
2023-03-18T17:56:18.628Z,23.00
2023-03-18T17:58:51.666Z,23.40
2023-03-18T18:01:27.439Z,25.10
2023-03-18T18:04:02.189Z,24.60
2023-03-18T18:06:34.204Z,27.00
2023-03-18T18:09:05.507Z,31.70
2023-03-18T18:11:44.470Z,31.00
2023-03-18T18:14:23.782Z,25.70
2023-03-18T18:16:56.223Z,47.60
2023-03-18T18:19:25.231Z,39.50
2023-03-18T18:21:57.250Z,34.20
2023-03-18T18:24:34.193Z,31.00
2023-03-18T18:27:04.691Z,29.20
2023-03-18T18:29:35.207Z,26.60
2023-03-18T18:32:04.994Z,27.70
2023-03-18T18:34:33.875Z,27.50
2023-03-18T18:37:03.051Z,28.80
2023-03-18T18:39:31.892Z,29.50
2023-03-18T18:42:00.579Z,29.40
2023-03-18T18:44:29.481Z,30.60
2023-03-18T18:46:58.296Z,27.60
2023-03-18T18:49:29.199Z,28.20
2023-03-18T18:51:57.969Z,27.50
2023-03-18T18:54:35.326Z,29.00
2023-03-18T18:57:04.357Z,26.90
2023-03-18T18:59:33.913Z,27.40
2023-03-18T19:02:03.812Z,26.70
2023-03-18T19:04:33.588Z,27.60
2023-03-18T19:07:06.604Z,26.70
2023-03-18T19:09:35.533Z,27.10
2023-03-18T19:12:05.040Z,28.50
2023-03-18T19:14:33.784Z,33.40
2023-03-18T19:17:04.381Z,35.80
2023-03-18T19:19:36.004Z,34.30
2023-03-18T19:22:05.688Z,30.80
2023-03-18T19:24:37.234Z,34.10
2023-03-18T19:27:33.387Z,36.50
2023-03-18T19:30:22.333Z,36.00
2023-03-18T19:32:51.501Z,34.00
2023-03-18T19:35:25.142Z,33.60
2023-03-18T19:37:55.698Z,31.30
2023-03-18T19:40:33.309Z,33.70
2023-03-18T19:43:03.217Z,34.90
2023-03-18T19:45:37.085Z,32.80
2023-03-18T19:48:23.910Z,33.80
2023-03-18T19:50:57.501Z,32.90
2023-03-18T19:53:28.243Z,34.60
2023-03-18T19:56:01.505Z,33.30
2023-03-18T19:58:30.693Z,33.00
2023-03-18T20:01:00.619Z,32.00
2023-03-18T20:03:40.832Z,34.00
2023-03-18T20:06:10.511Z,31.90
2023-03-18T20:08:40.330Z,33.20
2023-03-18T20:11:15.042Z,34.80
2023-03-18T20:13:44.906Z,35.00
2023-03-18T20:16:18.050Z,32.50
2023-03-18T20:18:47.785Z,34.60
2023-03-18T20:21:32.338Z,31.60
2023-03-18T20:24:11.986Z,31.30
2023-03-18T20:26:42.276Z,31.20
2023-03-18T20:29:18.288Z,31.60
2023-03-18T20:31:47.734Z,31.50
2023-03-18T20:34:16.508Z,30.00
2023-03-18T20:36:45.283Z,33.90
2023-03-18T20:39:21.549Z,32.40
2023-03-18T20:41:51.726Z,34.10
2023-03-18T20:44:21.571Z,32.50
2023-03-18T20:46:50.470Z,32.00
2023-03-18T20:49:19.920Z,33.20
2023-03-18T20:51:48.769Z,32.70
2023-03-18T20:54:23.892Z,36.20
2023-03-18T20:56:52.895Z,37.70
2023-03-18T20:59:21.892Z,34.00
2023-03-18T21:01:51.415Z,33.50
2023-03-18T21:04:20.319Z,35.10
2023-03-18T21:06:49.102Z,33.70
2023-03-18T21:09:17.995Z,33.00
2023-03-18T21:11:46.797Z,31.20
2023-03-18T21:14:16.287Z,33.40
2023-03-18T21:16:45.135Z,32.50
2023-03-18T21:19:16.531Z,31.80
2023-03-18T21:21:45.321Z,31.40
2023-03-18T21:24:29.871Z,29.20
2023-03-18T21:27:04.701Z,29.40
2023-03-18T21:29:34.332Z,29.90
2023-03-18T21:32:03.143Z,28.80
2023-03-18T21:34:32.447Z,30.30
2023-03-18T21:37:01.211Z,32.00
2023-03-18T21:39:30.120Z,31.30
2023-03-18T21:41:58.931Z,30.40
2023-03-18T21:44:32.884Z,30.60
2023-03-18T21:47:03.674Z,31.00
2023-03-18T21:49:32.510Z,28.30
2023-03-18T21:52:01.237Z,29.10
2023-03-18T21:54:30.116Z,28.60
2023-03-18T21:56:58.958Z,31.20
2023-03-18T21:59:27.967Z,30.20
2023-03-18T22:01:57.370Z,30.30
2023-03-18T22:04:26.382Z,29.00
2023-03-18T22:06:55.394Z,27.20
2023-03-18T22:09:26.842Z,26.60
2023-03-18T22:11:55.731Z,27.50
2023-03-18T22:14:24.794Z,28.90
2023-03-18T22:16:53.452Z,27.10
2023-03-18T22:19:23.482Z,26.40
2023-03-18T22:21:52.683Z,28.80
2023-03-18T22:24:21.464Z,26.30
2023-03-18T22:26:50.257Z,27.90
2023-03-18T22:29:19.213Z,26.70
2023-03-18T22:31:47.971Z,26.10
2023-03-18T22:34:24.342Z,26.00
2023-03-18T22:36:53.131Z,25.50
2023-03-18T22:39:21.865Z,25.80
2023-03-18T22:41:50.696Z,28.80
2023-03-18T22:44:24.518Z,27.30
2023-03-18T22:46:53.332Z,26.80
2023-03-18T22:49:22.142Z,28.40
2023-03-18T22:51:51.437Z,27.60
2023-03-18T22:54:20.773Z,25.10
2023-03-18T22:56:49.590Z,27.20
2023-03-18T22:59:18.432Z,26.70
2023-03-18T23:01:47.453Z,25.70
2023-03-18T23:04:17.981Z,27.00
2023-03-18T23:06:48.352Z,27.50
2023-03-18T23:09:17.141Z,27.10
2023-03-18T23:11:46.790Z,28.50
2023-03-18T23:14:15.680Z,26.50
2023-03-18T23:16:44.479Z,24.80
2023-03-18T23:19:13.222Z,25.70
2023-03-18T23:21:42.530Z,25.00
2023-03-18T23:24:11.283Z,24.40
2023-03-18T23:26:40.136Z,24.30
2023-03-18T23:29:09.283Z,26.10
2023-03-18T23:31:38.240Z,24.80
2023-03-18T23:34:07.074Z,24.30
2023-03-18T23:36:35.781Z,23.80
2023-03-18T23:39:04.649Z,24.20
2023-03-18T23:41:33.428Z,24.90
2023-03-18T23:44:02.320Z,24.90
2023-03-18T23:46:31.205Z,24.90
2023-03-18T23:48:59.961Z,22.70
2023-03-18T23:51:28.744Z,23.70
2023-03-18T23:53:57.502Z,22.90
2023-03-18T23:56:26.774Z,24.70
2023-03-18T23:58:55.580Z,22.80
